Lazy Duck III Of Pen — SD6052 — position and weather

sailwx.info

Track history (hours):
 
Tides and Currents Weather Stations Pressure Air Temp Water Temp Dewpoint Dewpoint Depression Visibility Wind Speed Wind Dir Waves Ship Positions

Lazy Duck III Of Pen

Last reported at 2017-Sep-19 13:09 UTC. Time now 2017-Sep-25 01:07 UTC.
Position N 36°55' W 008°10'.

Length 15 m.

Type: Pleasure craft. MMSI: 265629900.

Date/timePositionNaut miles runAvg speedWind from/ knotsBaromVisibWave heightAir tempDewpointWater temp
2017-Sep-19 13:09N 36°55' W 008°10'1 6.2
2017-Sep-19 13:00N 36°55' W 008°11'3 6.3
2017-Sep-19 12:29N 36°56' W 008°15'3 5.9
2017-Sep-19 12:00N 36°56' W 008°19'3 6.0
2017-Sep-19 11:30N 36°57' W 008°23'3 6.3
2017-Sep-19 10:59N 36°57' W 008°27'3 6.1
2017-Sep-19 10:25N 36°57' W 008°31'2 5.9
2017-Sep-19 10:00N 36°57' W 008°34'3 5.9
2017-Sep-19 09:30N 36°57' W 008°38'51 2.1
2017-Sep-18 09:28N 37°46' W 008°54'3 6.3
2017-Sep-18 09:01N 37°49' W 008°54'3 6.4
2017-Sep-18 08:30N 37°52' W 008°53'3 6.3
2017-Sep-18 08:00N 37°55' W 008°52'2 3.3
2017-Sep-18 07:28N 37°57' W 008°52'0 0.0
2017-Sep-17 19:06N 37°57' W 008°52'0 0.0
2017-Sep-17 19:00N 37°57' W 008°52'0 0.0
2017-Sep-17 15:31N 37°57' W 008°52'0 0.1
2017-Sep-17 15:28N 37°57' W 008°52'1 3.2
2017-Sep-17 15:00N 37°56' W 008°53'3 5.7
2017-Sep-17 14:30N 37°56' W 008°57'3 5.1
2017-Sep-17 14:00N 37°59' W 008°59'4 7.0
2017-Sep-17 13:30N 38°02' W 008°59'3 6.5
2017-Sep-17 13:00N 38°05' W 008°59'3 6.3
2017-Sep-17 12:30N 38°09' W 008°59'3 6.6
2017-Sep-17 12:00N 38°12' W 008°59'3 6.8
2017-Sep-17 11:30N 38°15' W 009°00'3 6.3
2017-Sep-17 10:57N 38°18' W 009°01'  
2017-Sep-14 12:05N 38°24' W 009°14'2 5.9
2017-Sep-14 11:43N 38°25' W 009°16'2 5.5
2017-Sep-14 11:24N 38°27' W 009°18'3 6.2
2017-Sep-14 10:58N 38°29' W 009°19'3 6.2
2017-Sep-14 10:28N 38°32' W 009°20'3 6.0
2017-Sep-14 09:58N 38°35' W 009°21'3 5.8
2017-Sep-14 09:30N 38°38' W 009°22'3 6.4
2017-Sep-14 08:58N 38°41' W 009°24'1 0.0
2017-Sep-12 19:37N 38°42' W 009°25'0 0.0
2017-Sep-12 19:16N 38°42' W 009°25'0 0.0
2017-Sep-12 18:01N 38°42' W 009°25'0 0.1
2017-Sep-12 17:05N 38°42' W 009°25'0 0.0
2017-Sep-12 16:53N 38°42' W 009°25'0 0.0
2017-Sep-12 16:20N 38°42' W 009°25'1 1.9
2017-Sep-12 16:00N 38°41' W 009°25'2 4.2
2017-Sep-12 15:30N 38°40' W 009°27'4 7.7
2017-Sep-12 15:00N 38°41' W 009°31'4 7.4
2017-Sep-12 14:30N 38°43' W 009°35'3 7.0
2017-Sep-12 14:00N 38°45' W 009°39'3 6.3
2017-Sep-12 13:30N 38°48' W 009°38'4 7.8
2017-Sep-12 13:00N 38°52' W 009°36'4 7.6
2017-Sep-12 12:30N 38°55' W 009°34'3 5.8
2017-Sep-12 12:01N 38°58' W 009°32'4 7.7
2017-Sep-12 11:31N 39°01' W 009°31'4 7.4
2017-Sep-12 11:00N 39°05' W 009°30'4 7.2
2017-Sep-12 10:30N 39°08' W 009°28'  
Track history (hours):
 
Tides and Currents Weather Stations Pressure Air Temp Water Temp Dewpoint Dewpoint Depression Visibility Wind Speed Wind Dir Waves Ship Positions

Lazy Duck III Of Pen

Last reported at 2017-Sep-19 13:09 UTC. Time now 2017-Sep-25 01:07 UTC.
Position N 36°55' W 008°10'.

Length 15 m.

Type: Pleasure craft. MMSI: 265629900.

Date/timePositionNaut miles runAvg speedWind from/ knotsBaromVisibWave heightAir tempDewpointWater temp
2017-Sep-19 13:09N 36°55' W 008°10'1 6.2
2017-Sep-19 13:00N 36°55' W 008°11'3 6.3
2017-Sep-19 12:29N 36°56' W 008°15'3 5.9
2017-Sep-19 12:00N 36°56' W 008°19'3 6.0
2017-Sep-19 11:30N 36°57' W 008°23'3 6.3
2017-Sep-19 10:59N 36°57' W 008°27'3 6.1
2017-Sep-19 10:25N 36°57' W 008°31'2 5.9
2017-Sep-19 10:00N 36°57' W 008°34'3 5.9
2017-Sep-19 09:30N 36°57' W 008°38'51 2.1
2017-Sep-18 09:28N 37°46' W 008°54'3 6.3
2017-Sep-18 09:01N 37°49' W 008°54'3 6.4
2017-Sep-18 08:30N 37°52' W 008°53'3 6.3
2017-Sep-18 08:00N 37°55' W 008°52'2 3.3
2017-Sep-18 07:28N 37°57' W 008°52'0 0.0
2017-Sep-17 19:06N 37°57' W 008°52'0 0.0
2017-Sep-17 19:00N 37°57' W 008°52'0 0.0
2017-Sep-17 15:31N 37°57' W 008°52'0 0.1
2017-Sep-17 15:28N 37°57' W 008°52'1 3.2
2017-Sep-17 15:00N 37°56' W 008°53'3 5.7
2017-Sep-17 14:30N 37°56' W 008°57'3 5.1
2017-Sep-17 14:00N 37°59' W 008°59'4 7.0
2017-Sep-17 13:30N 38°02' W 008°59'3 6.5
2017-Sep-17 13:00N 38°05' W 008°59'3 6.3
2017-Sep-17 12:30N 38°09' W 008°59'3 6.6
2017-Sep-17 12:00N 38°12' W 008°59'3 6.8
2017-Sep-17 11:30N 38°15' W 009°00'3 6.3
2017-Sep-17 10:57N 38°18' W 009°01'  
2017-Sep-14 12:05N 38°24' W 009°14'2 5.9
2017-Sep-14 11:43N 38°25' W 009°16'2 5.5
2017-Sep-14 11:24N 38°27' W 009°18'3 6.2
2017-Sep-14 10:58N 38°29' W 009°19'3 6.2
2017-Sep-14 10:28N 38°32' W 009°20'3 6.0
2017-Sep-14 09:58N 38°35' W 009°21'3 5.8
2017-Sep-14 09:30N 38°38' W 009°22'3 6.4
2017-Sep-14 08:58N 38°41' W 009°24'1 0.0
2017-Sep-12 19:37N 38°42' W 009°25'0 0.0
2017-Sep-12 19:16N 38°42' W 009°25'0 0.0
2017-Sep-12 18:01N 38°42' W 009°25'0 0.1
2017-Sep-12 17:05N 38°42' W 009°25'0 0.0
2017-Sep-12 16:53N 38°42' W 009°25'0 0.0
2017-Sep-12 16:20N 38°42' W 009°25'1 1.9
2017-Sep-12 16:00N 38°41' W 009°25'2 4.2
2017-Sep-12 15:30N 38°40' W 009°27'4 7.7
2017-Sep-12 15:00N 38°41' W 009°31'4 7.4
2017-Sep-12 14:30N 38°43' W 009°35'3 7.0
2017-Sep-12 14:00N 38°45' W 009°39'3 6.3
2017-Sep-12 13:30N 38°48' W 009°38'4 7.8
2017-Sep-12 13:00N 38°52' W 009°36'4 7.6
2017-Sep-12 12:30N 38°55' W 009°34'3 5.8
2017-Sep-12 12:01N 38°58' W 009°32'4 7.7
2017-Sep-12 11:31N 39°01' W 009°31'4 7.4
2017-Sep-12 11:00N 39°05' W 009°30'4 7.2
2017-Sep-12 10:30N 39°08' W 009°28'  

Dump ship's entire track history